Flight Track Log - Related Links

Times and Time Zones

All times are in EDT time to prevent confusion due to time zone crossing. See the ELJ384 flight status page for this flight to view local times or setup timezone preferences in your user account.

Time Position Orientation Groundspeed Altitude Reporting Facility
EDT Latitude Longitude Course Direction KTS MPH feet Rate Location/Type
Wed 04:55:54 PM 40.8333 -74.1000 241° Southwest 194 223 1,600  Level New York TRACON
Wed 04:56:54 PM 40.8167 -74.1667 252° West 212 244 2,300 1,950 Climbing New York TRACON
Wed 04:57:54 PM 40.8167 -74.2667 270° West 256 295 5,500 3,100 Climbing New York TRACON
Wed 04:58:54 PM 40.8000 -74.3500 255° West 278 320 8,500 3,453 Climbing New York TRACON
Wed 05:00:53 PM 40.7672 -74.5686 259° West 317 365 15,800 3,486 Climbing New York Center
Wed 05:01:00 PM 40.5532 -74.6160 241° Southwest  Level Estimated
Wed 05:01:53 PM 40.7461 -74.7044 258° West 347 399 18,900  Level New York Center
Wed 05:02:53 PM 40.7253 -74.8292 258° West 368 423 20,000 550 Climbing New York Center
Wed 05:03:53 PM 40.6992 -74.9756 257° West 392 451 20,000  Level New York Center
Wed 05:04:53 PM 40.6692 -75.1186 255° West 405 466 20,000  Level New York Center
Wed 05:05:53 PM 40.6081 -75.2433 237° Southwest 405 466 20,000  Level New York Center
Wed 05:06:53 PM 40.5489 -75.3758 240° Southwest 410 472 20,000  Level New York Center
Wed 05:07:53 PM 40.4897 -75.5003 238° Southwest 410 472 20,000  Level New York Center
Wed 05:08:53 PM 40.4325 -75.6272 239° Southwest 410 472 20,000  Level New York Center
Wed 05:09:53 PM 40.3731 -75.7539 238° Southwest 410 472 20,000  Level New York Center
Wed 05:10:53 PM 40.3200 -75.8697 239° Southwest 416 479 20,000 -250 Level New York Center
Wed 05:11:53 PM 40.2444 -76.0247 237° Southwest 416 479 19,500 -750 Descending New York Center
Wed 05:12:53 PM 40.1869 -76.1481 239° Southwest 406 467 18,500 -950 Descending New York Center
Wed 05:13:53 PM 40.1269 -76.2711 238° Southwest 406 467 17,600 -800 Descending New York Center
Wed 05:14:53 PM 40.0714 -76.3914 239° Southwest 406 467 16,900 -650 Descending New York Center
Wed 05:15:53 PM 40.0244 -76.4961 240° Southwest 382 440 16,300 -614 Descending New York Center
Wed 05:17:49 PM 39.9167 -76.7333 239° Southwest 377 434 15,100 -443 Descending Potomac TRACON
Wed 05:18:49 PM 39.8667 -76.8500 241° Southwest 376 433 15,000 -650 Descending Potomac TRACON
Wed 05:19:49 PM 39.8000 -76.9667 233° Southwest 373 429 13,800 -1,140 Descending Potomac TRACON
Wed 05:20:50 PM 39.7500 -77.0833 241° Southwest 373 429 12,700 -1,091 Descending Potomac TRACON
Wed 05:21:50 PM 39.7000 -77.1833 237° Southwest 359 413 11,600 -1,150 Descending Potomac TRACON
Wed 05:22:50 PM 39.6500 -77.2833 237° Southwest 351 404 10,400 -800 Descending Potomac TRACON
Wed 05:23:50 PM 39.6000 -77.3833 237° Southwest 340 391 10,000 -429 Descending Potomac TRACON
Wed 05:24:56 PM 39.5167 -77.4500 212° Southwest 301 346 9,500 -1,140 Descending Potomac TRACON
Wed 05:25:51 PM 39.4333 -77.4500 180° South 282 325 7,700 -1,513 Descending Potomac TRACON
Wed 05:26:51 PM 39.3667 -77.4500 180° South 244 281 6,600 -1,200 Descending Potomac TRACON
Wed 05:27:51 PM 39.3000 -77.4500 180° South 227 261 5,300 -1,250 Descending Potomac TRACON
Wed 05:28:51 PM 39.2500 -77.4500 180° South 216 249 4,100 -632 Descending Potomac TRACON
Wed 05:29:45 PM 39.2000 -77.4500 180° South 193 222 4,100 -150 Level Potomac TRACON
Wed 05:30:51 PM 39.1333 -77.4500 180° South 189 217 3,800 -762 Descending Potomac TRACON
Wed 05:31:51 PM 39.0833 -77.4500 180° South 194 223 2,500 -1,041 Descending Potomac TRACON
Wed 05:32:52 PM 39.0333 -77.4667 195° South 155 178 1,700 -793 Descending Potomac TRACON
Wed 05:33:52 PM 39.0000 -77.4667 180° South 137 158 900 -800 Descending Potomac TRACON
Wed 05:35:00 PM 38.9474 -77.4599 180° South  Level Estimated
Wed 05:42:00 PM 38.9474 -77.4599 349° North  Level Estimated
Wed 05:43:00 PM 38.9474 -77.4599 349° North  Level Estimated
Wed 05:44:00 PM 38.9474 -77.4599 349° North  Level Estimated
Wed 05:45:00 PM 38.9474 -77.4599 349° North  Level Estimated

Login

Don't have an account? Register now (free) for customized features, flight alerts, and more!